createdAt,value
2018-12-24T00:00:37.812Z,999.48
2018-12-24T00:01:37.809Z,999.47
2018-12-24T00:02:37.835Z,999.50
2018-12-24T00:03:37.860Z,999.47
2018-12-24T00:04:37.873Z,999.44
2018-12-24T00:05:37.882Z,999.56
2018-12-24T00:06:37.935Z,999.57
2018-12-24T00:07:37.915Z,999.61
2018-12-24T00:08:37.934Z,999.59
2018-12-24T00:09:37.957Z,999.59
2018-12-24T00:10:38.038Z,999.61
2018-12-24T00:11:37.982Z,999.62
2018-12-24T00:12:38.017Z,999.61
2018-12-24T00:13:38.027Z,999.60
2018-12-24T00:14:38.060Z,999.63
2018-12-24T00:15:38.097Z,999.65
2018-12-24T00:16:38.071Z,999.63
2018-12-24T00:17:38.091Z,999.64
2018-12-24T00:18:38.113Z,999.66
2018-12-24T00:19:38.141Z,999.68
2018-12-24T00:20:38.137Z,999.71
2018-12-24T00:21:38.154Z,999.70
2018-12-24T00:22:38.172Z,999.73
2018-12-24T00:23:38.201Z,999.71
2018-12-24T00:24:38.204Z,999.74
2018-12-24T00:25:38.226Z,999.78
2018-12-24T00:26:38.243Z,999.72
2018-12-24T00:27:38.261Z,999.76
2018-12-24T00:28:38.278Z,999.77
2018-12-24T00:29:38.290Z,999.75
2018-12-24T00:30:38.311Z,999.78
2018-12-24T00:31:38.354Z,999.80
2018-12-24T00:32:38.362Z,999.80
2018-12-24T00:33:38.389Z,999.82
2018-12-24T00:34:38.374Z,999.80
2018-12-24T00:35:38.392Z,999.85
2018-12-24T00:36:38.428Z,999.90
2018-12-24T00:37:38.443Z,999.86
2018-12-24T00:38:38.453Z,999.87
2018-12-24T00:39:38.470Z,999.89
2018-12-24T00:40:38.476Z,999.92
2018-12-24T00:41:38.491Z,999.93
2018-12-24T00:42:38.532Z,999.97
2018-12-24T00:43:38.535Z,1000.01
2018-12-24T00:44:38.622Z,1000.00
2018-12-24T00:45:38.560Z,1000.05
2018-12-24T00:46:38.596Z,1000.04
2018-12-24T00:47:38.595Z,1000.10
2018-12-24T00:48:38.657Z,1000.11
2018-12-24T00:49:38.639Z,1000.13
2018-12-24T00:50:38.654Z,1000.16
2018-12-24T00:51:38.672Z,1000.15
2018-12-24T00:52:38.679Z,1000.17
2018-12-24T00:53:38.743Z,1000.21
2018-12-24T00:54:38.715Z,1000.24
2018-12-24T00:55:38.736Z,1000.21
2018-12-24T00:56:38.753Z,1000.26
2018-12-24T00:57:38.773Z,1000.28
2018-12-24T00:58:38.857Z,1000.30
2018-12-24T00:59:38.811Z,1000.32
2018-12-24T01:00:38.833Z,1000.32
2018-12-24T01:01:38.838Z,1000.33
2018-12-24T01:02:38.878Z,1000.35
2018-12-24T01:03:38.872Z,1000.36
2018-12-24T01:04:38.889Z,1000.39
2018-12-24T01:05:38.917Z,1000.42
2018-12-24T01:06:38.941Z,1000.45
2018-12-24T01:07:38.955Z,1000.52
2018-12-24T01:08:38.965Z,1000.55
2018-12-24T01:09:38.982Z,1000.52
2018-12-24T01:10:38.986Z,1000.68
2018-12-24T01:11:39.002Z,1000.67
2018-12-24T01:12:39.051Z,1000.69
2018-12-24T01:13:39.095Z,1000.72
2018-12-24T01:14:39.063Z,1000.73
2018-12-24T01:15:39.077Z,1000.74
2018-12-24T01:16:39.091Z,1000.75
2018-12-24T01:17:39.108Z,1000.79
2018-12-24T01:18:39.124Z,1000.82
2018-12-24T01:19:39.139Z,1000.75
2018-12-24T01:20:39.172Z,1000.74
2018-12-24T01:21:39.188Z,1000.74
2018-12-24T01:22:39.206Z,1000.78
2018-12-24T01:23:39.215Z,1000.89
2018-12-24T01:24:39.221Z,1000.92
2018-12-24T01:25:39.242Z,1000.99
2018-12-24T01:26:39.259Z,1001.03
2018-12-24T01:27:39.281Z,1001.02
2018-12-24T01:28:39.301Z,1001.08
2018-12-24T01:29:39.312Z,1001.10
2018-12-24T01:30:39.327Z,1001.10
2018-12-24T01:31:39.372Z,1001.11
2018-12-24T01:32:39.361Z,1001.13
2018-12-24T01:33:39.373Z,1001.14
2018-12-24T01:34:39.392Z,1001.14
2018-12-24T01:35:39.411Z,1001.17
2018-12-24T01:36:39.562Z,1001.15
2018-12-24T01:37:39.452Z,1001.19
2018-12-24T01:38:39.463Z,1001.20
2018-12-24T01:39:39.484Z,1001.20
2018-12-24T01:40:39.492Z,1001.25
2018-12-24T01:41:39.511Z,1001.24
2018-12-24T01:42:39.525Z,1001.26
2018-12-24T01:43:39.547Z,1001.32
2018-12-24T01:44:39.569Z,1001.30
2018-12-24T01:45:39.576Z,1001.37
2018-12-24T01:46:39.642Z,1001.41
2018-12-24T01:47:39.626Z,1001.45
2018-12-24T01:48:39.627Z,1001.44
2018-12-24T01:49:39.642Z,1001.47
2018-12-24T01:50:39.686Z,1001.46
2018-12-24T01:51:39.686Z,1001.47
2018-12-24T01:52:39.707Z,1001.52
2018-12-24T01:53:39.730Z,1001.51
2018-12-24T01:54:39.730Z,1001.54
2018-12-24T01:55:39.776Z,1001.56
2018-12-24T01:56:39.768Z,1001.63
2018-12-24T01:57:39.791Z,1001.62
2018-12-24T01:58:39.841Z,1001.61
2018-12-24T01:59:39.813Z,1001.65
2018-12-24T02:00:39.847Z,1001.63
2018-12-24T02:01:39.848Z,1001.66
2018-12-24T02:02:39.863Z,1001.62
2018-12-24T02:03:39.891Z,1001.66
2018-12-24T02:04:39.911Z,1001.67
2018-12-24T02:05:39.921Z,1001.67
2018-12-24T02:06:39.943Z,1001.70
2018-12-24T02:07:39.989Z,1001.68
2018-12-24T02:08:39.975Z,1001.69
2018-12-24T02:09:39.999Z,1001.71
2018-12-24T02:10:40.006Z,1001.68
2018-12-24T02:11:40.040Z,1001.71
2018-12-24T02:12:42.385Z,1001.69
2018-12-24T02:13:40.068Z,1001.73
2018-12-24T02:14:40.076Z,1001.73
2018-12-24T02:15:40.095Z,1001.75
2018-12-24T02:16:40.110Z,1001.75
2018-12-24T02:17:40.145Z,1001.76
2018-12-24T02:18:40.139Z,1001.79
2018-12-24T02:19:40.152Z,1001.80
2018-12-24T02:20:40.191Z,1001.82
2018-12-24T02:21:40.212Z,1001.90
2018-12-24T02:22:40.215Z,1001.90
2018-12-24T02:23:40.220Z,1001.90
2018-12-24T02:24:40.233Z,1001.97
2018-12-24T02:25:40.255Z,1001.97
2018-12-24T02:26:40.271Z,1002.00
2018-12-24T02:27:40.283Z,1002.01
2018-12-24T02:28:40.303Z,1001.96
2018-12-24T02:29:40.334Z,1002.04
2018-12-24T02:30:40.335Z,1001.99
2018-12-24T02:31:40.354Z,1002.01
2018-12-24T02:32:40.372Z,1001.97
2018-12-24T02:33:40.384Z,1002.02
2018-12-24T02:34:40.405Z,1002.02
2018-12-24T02:35:40.436Z,1002.06
2018-12-24T02:36:40.436Z,1002.05
2018-12-24T02:37:40.458Z,1002.08
2018-12-24T02:38:40.470Z,1002.04
2018-12-24T02:39:40.485Z,1002.11
2018-12-24T02:40:40.508Z,1002.08
2018-12-24T02:41:40.529Z,1002.11
2018-12-24T02:42:40.535Z,1002.15
2018-12-24T02:43:40.572Z,1002.15
2018-12-24T02:44:40.566Z,1002.14
2018-12-24T02:45:40.583Z,1002.13
2018-12-24T02:46:40.604Z,1002.12
2018-12-24T02:47:40.629Z,1002.14
2018-12-24T02:48:40.670Z,1002.18
2018-12-24T02:49:40.656Z,1002.20
2018-12-24T02:50:40.671Z,1002.20
2018-12-24T02:51:40.692Z,1002.26
2018-12-24T02:52:40.699Z,1002.27
2018-12-24T02:53:40.727Z,1002.29
2018-12-24T02:54:40.742Z,1002.34
2018-12-24T02:55:40.752Z,1002.36
2018-12-24T02:56:40.766Z,1002.39
2018-12-24T02:57:40.789Z,1002.37
2018-12-24T02:58:40.836Z,1002.44
2018-12-24T02:59:40.832Z,1002.44
2018-12-24T03:00:40.839Z,1002.44
2018-12-24T03:01:40.872Z,1002.52
2018-12-24T03:02:40.868Z,1002.60
2018-12-24T03:03:40.887Z,1002.55
2018-12-24T03:04:40.900Z,1002.62
2018-12-24T03:05:40.931Z,1002.60
2018-12-24T03:06:40.974Z,1002.63
2018-12-24T03:07:40.990Z,1002.66
2018-12-24T03:08:40.978Z,1002.69
2018-12-24T03:09:40.985Z,1002.68
2018-12-24T03:10:41.043Z,1002.70
2018-12-24T03:11:41.018Z,1002.70
2018-12-24T03:12:41.044Z,1002.74
2018-12-24T03:13:41.081Z,1002.73
2018-12-24T03:14:41.111Z,1002.76
2018-12-24T03:15:41.095Z,1002.82
2018-12-24T03:16:41.121Z,1002.84
2018-12-24T03:17:41.126Z,1002.82
2018-12-24T03:18:41.139Z,1002.91
2018-12-24T03:19:41.188Z,1002.89
2018-12-24T03:20:41.177Z,1002.92
2018-12-24T03:21:41.203Z,1002.93
2018-12-24T03:22:41.210Z,1002.98
2018-12-24T03:23:41.225Z,1002.96
2018-12-24T03:24:41.245Z,1003.01
2018-12-24T03:25:41.290Z,1002.96
2018-12-24T03:26:41.275Z,1002.99
2018-12-24T03:27:41.295Z,1003.04
2018-12-24T03:28:41.315Z,1003.07
2018-12-24T03:29:41.323Z,1003.08
2018-12-24T03:30:41.383Z,1003.10
2018-12-24T03:31:41.370Z,1003.18
2018-12-24T03:32:41.406Z,1003.17
2018-12-24T03:33:41.390Z,1003.25
2018-12-24T03:34:41.410Z,1003.22
2018-12-24T03:35:41.442Z,1003.31
2018-12-24T03:36:41.460Z,1003.28
2018-12-24T03:37:41.525Z,1003.34
2018-12-24T03:38:41.578Z,1003.36
2018-12-24T03:39:41.519Z,1003.30
2018-12-24T03:40:41.706Z,1003.36
2018-12-24T03:41:41.537Z,1003.40
2018-12-24T03:42:41.620Z,1003.38
2018-12-24T03:43:41.574Z,1003.37
2018-12-24T03:44:41.583Z,1003.44
2018-12-24T03:45:41.728Z,1003.46
2018-12-24T03:46:41.654Z,1003.50
2018-12-24T03:47:41.645Z,1003.52
2018-12-24T03:48:41.656Z,1003.51
2018-12-24T03:49:41.662Z,1003.50
2018-12-24T03:50:41.819Z,1003.48
2018-12-24T03:51:41.699Z,1003.48
2018-12-24T03:52:41.717Z,1003.53
2018-12-24T03:53:41.779Z,1003.46
2018-12-24T03:54:41.742Z,1003.49
2018-12-24T03:55:41.762Z,1003.50
2018-12-24T03:56:41.781Z,1003.54
2018-12-24T03:57:41.803Z,1003.52
2018-12-24T03:58:41.841Z,1003.61
2018-12-24T03:59:41.908Z,1003.62
2018-12-24T04:00:41.846Z,1003.63
2018-12-24T04:01:41.865Z,1003.70
2018-12-24T04:02:41.897Z,1003.66
2018-12-24T04:03:41.911Z,1003.66
2018-12-24T04:04:41.919Z,1003.63
2018-12-24T04:05:41.942Z,1003.66
2018-12-24T04:06:41.962Z,1003.69
2018-12-24T04:07:42.002Z,1003.69
2018-12-24T04:08:41.987Z,1003.74
2018-12-24T04:09:42.004Z,1003.74
2018-12-24T04:10:42.029Z,1003.74
2018-12-24T04:11:42.048Z,1003.81
2018-12-24T04:12:42.050Z,1003.79
2018-12-24T04:13:42.062Z,1003.80
2018-12-24T04:14:42.089Z,1003.80
2018-12-24T04:15:42.152Z,1003.81
2018-12-24T04:16:42.150Z,1003.85
2018-12-24T04:17:42.129Z,1003.90
2018-12-24T04:18:42.197Z,1003.87
2018-12-24T04:19:42.167Z,1003.92
2018-12-24T04:20:42.191Z,1003.93
2018-12-24T04:21:42.198Z,1004.01
2018-12-24T04:22:42.320Z,1003.99
2018-12-24T04:23:42.245Z,1003.96
2018-12-24T04:24:42.269Z,1004.03
2018-12-24T04:25:42.305Z,1004.11
2018-12-24T04:26:42.288Z,1004.09
2018-12-24T04:27:42.360Z,1004.06
2018-12-24T04:28:42.340Z,1004.16
2018-12-24T04:29:42.387Z,1004.13
2018-12-24T04:30:42.359Z,1004.15
2018-12-24T04:31:42.376Z,1004.15
2018-12-24T04:32:42.392Z,1004.21
2018-12-24T04:33:42.404Z,1004.28
2018-12-24T04:34:42.423Z,1004.33
2018-12-24T04:35:42.439Z,1004.40
2018-12-24T04:36:42.463Z,1004.42
2018-12-24T04:37:42.486Z,1004.45
2018-12-24T04:38:42.517Z,1004.40
2018-12-24T04:39:42.501Z,1004.45
2018-12-24T04:40:42.518Z,1004.45
2018-12-24T04:41:42.552Z,1004.42
2018-12-24T04:42:42.566Z,1004.42
2018-12-24T04:43:42.574Z,1004.41
2018-12-24T04:44:42.600Z,1004.42
2018-12-24T04:45:42.652Z,1004.51
2018-12-24T04:46:42.632Z,1004.49
2018-12-24T04:47:42.637Z,1004.50
2018-12-24T04:48:42.659Z,1004.55
2018-12-24T04:49:42.679Z,1004.59
2018-12-24T04:50:42.701Z,1004.64
2018-12-24T04:51:42.710Z,1004.67
2018-12-24T04:52:42.761Z,1004.74
2018-12-24T04:53:42.811Z,1004.77
2018-12-24T04:54:42.776Z,1004.80
2018-12-24T04:55:42.786Z,1004.85
2018-12-24T04:56:42.791Z,1004.89
2018-12-24T04:57:42.807Z,1004.93
2018-12-24T04:58:42.827Z,1004.97
2018-12-24T04:59:42.854Z,1004.99
2018-12-24T05:00:42.870Z,1005.02
2018-12-24T05:01:42.881Z,1005.07
2018-12-24T05:02:42.894Z,1005.07
2018-12-24T05:03:42.899Z,1005.18
2018-12-24T05:04:42.924Z,1005.16
2018-12-24T05:05:42.964Z,1005.24
2018-12-24T05:06:42.966Z,1005.28
2018-12-24T05:07:42.976Z,1005.32
2018-12-24T05:08:42.985Z,1005.35
2018-12-24T05:09:43.004Z,1005.37
2018-12-24T05:10:43.019Z,1005.46
2018-12-24T05:11:43.038Z,1005.44
2018-12-24T05:12:43.054Z,1005.46
2018-12-24T05:13:43.067Z,1005.54
2018-12-24T05:14:43.088Z,1005.52
2018-12-24T05:15:43.103Z,1005.58
2018-12-24T05:16:43.117Z,1005.60
2018-12-24T05:17:43.142Z,1005.60
2018-12-24T05:18:43.152Z,1005.68
2018-12-24T05:19:43.165Z,1005.67
2018-12-24T05:20:43.202Z,1005.75
2018-12-24T05:21:43.200Z,1005.80
2018-12-24T05:22:43.234Z,1005.83
2018-12-24T05:23:43.230Z,1005.87
2018-12-24T05:24:43.252Z,1005.88
2018-12-24T05:25:43.269Z,1005.92
2018-12-24T05:26:43.292Z,1005.94
2018-12-24T05:27:43.315Z,1005.96
2018-12-24T05:28:43.327Z,1005.99
2018-12-24T05:29:43.327Z,1005.99
2018-12-24T05:30:43.350Z,1006.01
2018-12-24T05:31:43.365Z,1006.02
2018-12-24T05:32:43.378Z,1006.05
2018-12-24T05:33:43.396Z,1006.06
2018-12-24T05:34:43.416Z,1006.07
2018-12-24T05:35:43.425Z,1006.08
2018-12-24T05:36:43.447Z,1006.12
2018-12-24T05:37:43.463Z,1006.13
2018-12-24T05:38:43.476Z,1006.19
2018-12-24T05:39:43.492Z,1006.21
2018-12-24T05:40:43.505Z,1006.22
2018-12-24T05:41:43.526Z,1006.23
2018-12-24T05:42:43.551Z,1006.24
2018-12-24T05:43:49.444Z,1006.28
2018-12-24T05:44:43.576Z,1006.35
2018-12-24T05:45:43.595Z,1006.36
2018-12-24T05:46:43.612Z,1006.40
2018-12-24T05:47:43.644Z,1006.45
2018-12-24T05:48:43.645Z,1006.43
2018-12-24T05:49:43.655Z,1006.48
2018-12-24T05:50:43.696Z,1006.48
2018-12-24T05:51:43.697Z,1006.49
2018-12-24T05:52:43.714Z,1006.51
2018-12-24T05:53:43.723Z,1006.50
2018-12-24T05:54:43.768Z,1006.53
2018-12-24T05:55:43.770Z,1006.58
2018-12-24T05:56:43.822Z,1006.58
2018-12-24T05:57:43.800Z,1006.56
2018-12-24T05:58:43.813Z,1006.68
2018-12-24T05:59:43.825Z,1006.64
2018-12-24T06:00:43.909Z,1006.66
2018-12-24T06:01:43.881Z,1006.71
2018-12-24T06:02:43.867Z,1006.76
2018-12-24T06:03:43.917Z,1006.81
2018-12-24T06:04:43.918Z,1006.81
2018-12-24T06:05:43.923Z,1006.86
2018-12-24T06:06:43.959Z,1006.91
2018-12-24T06:07:43.952Z,1006.92
2018-12-24T06:08:43.965Z,1006.99
2018-12-24T06:09:43.985Z,1007.05
2018-12-24T06:10:44.001Z,1007.08
2018-12-24T06:11:44.025Z,1007.12
2018-12-24T06:12:44.038Z,1007.17
2018-12-24T06:13:44.051Z,1007.24
2018-12-24T06:14:44.066Z,1007.31
2018-12-24T06:15:44.093Z,1007.34
2018-12-24T06:16:44.106Z,1007.36
2018-12-24T06:17:44.113Z,1007.36
2018-12-24T06:18:44.132Z,1007.41
2018-12-24T06:19:44.166Z,1007.43
2018-12-24T06:20:44.164Z,1007.47
2018-12-24T06:21:44.183Z,1007.46
2018-12-24T06:22:44.198Z,1007.50
2018-12-24T06:23:44.216Z,1007.51
2018-12-24T06:24:44.236Z,1007.53
2018-12-24T06:25:44.266Z,1007.51
2018-12-24T06:26:44.268Z,1007.52
2018-12-24T06:27:44.276Z,1007.57
2018-12-24T06:28:44.300Z,1007.57
2018-12-24T06:29:44.366Z,1007.58
2018-12-24T06:30:44.342Z,1007.62
2018-12-24T06:31:44.345Z,1007.63
2018-12-24T06:32:44.374Z,1007.64
2018-12-24T06:33:44.388Z,1007.66
2018-12-24T06:34:44.407Z,1007.71
2018-12-24T06:35:44.437Z,1007.70
2018-12-24T06:36:44.425Z,1007.73
2018-12-24T06:37:44.447Z,1007.78
2018-12-24T06:38:44.463Z,1007.78
2018-12-24T06:39:44.474Z,1007.79
2018-12-24T06:40:44.489Z,1007.80
2018-12-24T06:41:44.509Z,1007.87
2018-12-24T06:42:44.547Z,1007.88
2018-12-24T06:43:44.541Z,1007.91
2018-12-24T06:44:44.569Z,1007.92
2018-12-24T06:45:44.581Z,1007.99
2018-12-24T06:46:44.588Z,1008.01
2018-12-24T06:47:44.610Z,1008.04
2018-12-24T06:48:44.660Z,1008.03
2018-12-24T06:49:44.645Z,1008.09
2018-12-24T06:50:44.659Z,1008.10
2018-12-24T06:51:44.671Z,1008.14
2018-12-24T06:52:44.713Z,1008.17
2018-12-24T06:53:44.715Z,1008.15
2018-12-24T06:54:44.738Z,1008.16
2018-12-24T06:55:44.748Z,1008.26
2018-12-24T06:56:44.759Z,1008.23
2018-12-24T06:57:44.769Z,1008.27
2018-12-24T06:58:44.895Z,1008.29
2018-12-24T06:59:44.811Z,1008.34
2018-12-24T07:00:44.822Z,1008.36
2018-12-24T07:01:44.848Z,1008.35
2018-12-24T07:02:44.883Z,1008.37
2018-12-24T07:03:44.886Z,1008.34
2018-12-24T07:04:44.896Z,1008.32
2018-12-24T07:05:44.921Z,1008.35
2018-12-24T07:06:44.925Z,1008.39
2018-12-24T07:07:44.940Z,1008.38
2018-12-24T07:08:44.953Z,1008.43
2018-12-24T07:09:44.972Z,1008.39
2018-12-24T07:10:44.987Z,1008.43
2018-12-24T07:11:45.003Z,1008.46
2018-12-24T07:12:45.041Z,1008.47
2018-12-24T07:13:45.043Z,1008.49
2018-12-24T07:14:45.055Z,1008.56
2018-12-24T07:15:45.076Z,1008.57
2018-12-24T07:16:45.095Z,1008.58
2018-12-24T07:17:45.108Z,1008.56
2018-12-24T07:18:45.131Z,1008.60
2018-12-24T07:19:45.134Z,1008.65
2018-12-24T07:20:45.164Z,1008.65
2018-12-24T07:21:45.174Z,1008.68
2018-12-24T07:22:45.198Z,1008.71
2018-12-24T07:23:45.202Z,1008.70
2018-12-24T07:24:45.221Z,1008.74
2018-12-24T07:25:45.235Z,1008.78
2018-12-24T07:26:45.259Z,1008.84
2018-12-24T07:27:45.269Z,1008.84
2018-12-24T07:28:45.301Z,1008.88
2018-12-24T07:29:45.299Z,1008.92
2018-12-24T07:30:45.314Z,1008.95
2018-12-24T07:31:45.360Z,1008.94
2018-12-24T07:32:45.356Z,1008.96
2018-12-24T07:33:45.369Z,1009.04
2018-12-24T07:34:45.387Z,1009.12
2018-12-24T07:35:45.396Z,1009.14
2018-12-24T07:36:45.440Z,1009.20
2018-12-24T07:37:45.448Z,1009.21
2018-12-24T07:38:45.450Z,1009.22
2018-12-24T07:39:45.466Z,1009.32
2018-12-24T07:40:45.623Z,1009.36
2018-12-24T07:41:45.513Z,1009.34
2018-12-24T07:42:45.513Z,1009.40
2018-12-24T07:43:45.541Z,1009.52
2018-12-24T07:44:45.550Z,1009.46
2018-12-24T07:45:45.568Z,1009.49
2018-12-24T07:46:45.595Z,1009.51
2018-12-24T07:47:45.601Z,1009.52
2018-12-24T07:48:45.625Z,1009.59
2018-12-24T07:49:45.640Z,1009.64
2018-12-24T07:50:45.653Z,1009.66
2018-12-24T07:51:45.674Z,1009.66
2018-12-24T07:52:45.722Z,1009.73
2018-12-24T07:53:45.710Z,1009.72
2018-12-24T07:54:45.713Z,1009.73
2018-12-24T07:55:45.731Z,1009.76
2018-12-24T07:56:45.782Z,1009.79
2018-12-24T07:57:45.775Z,1009.83
2018-12-24T07:58:45.783Z,1009.85
2018-12-24T07:59:45.793Z,1009.89
2018-12-24T08:00:45.812Z,1009.91
2018-12-24T08:01:45.826Z,1009.92
2018-12-24T08:02:45.844Z,1009.97
2018-12-24T08:03:45.860Z,1009.98
2018-12-24T08:04:45.880Z,1010.04
2018-12-24T08:05:45.899Z,1010.05
2018-12-24T08:06:45.909Z,1010.09
2018-12-24T08:07:45.927Z,1010.17
2018-12-24T08:08:45.941Z,1010.15
2018-12-24T08:09:45.960Z,1010.18
2018-12-24T08:10:45.977Z,1010.23
2018-12-24T08:11:45.992Z,1010.41
2018-12-24T08:12:46.010Z,1010.32
2018-12-24T08:13:46.027Z,1010.34
2018-12-24T08:14:46.036Z,1010.37
2018-12-24T08:15:46.059Z,1010.41
2018-12-24T08:16:46.066Z,1010.45
2018-12-24T08:17:46.087Z,1010.47
2018-12-24T08:18:46.102Z,1010.50
2018-12-24T08:19:46.123Z,1010.52
2018-12-24T08:20:47.477Z,1010.54
2018-12-24T08:21:46.149Z,1010.51
2018-12-24T08:22:46.177Z,1010.53
2018-12-24T08:23:46.180Z,1010.49
2018-12-24T08:24:46.197Z,1010.52
2018-12-24T08:25:46.212Z,1010.46
2018-12-24T08:26:46.242Z,1010.45
2018-12-24T08:27:46.259Z,1010.49
2018-12-24T08:28:46.263Z,1010.51
2018-12-24T08:29:46.284Z,1010.48
2018-12-24T08:30:46.310Z,1010.53
2018-12-24T08:31:46.313Z,1010.56
2018-12-24T08:32:46.325Z,1010.58
2018-12-24T08:33:46.351Z,1010.70
2018-12-24T08:34:46.367Z,1010.66
2018-12-24T08:35:46.385Z,1010.69
2018-12-24T08:36:46.396Z,1010.72
2018-12-24T08:37:46.427Z,1010.74
2018-12-24T08:38:46.428Z,1010.78
2018-12-24T08:39:46.494Z,1010.76
2018-12-24T08:40:46.485Z,1010.78
2018-12-24T08:41:46.478Z,1010.85
2018-12-24T08:42:46.500Z,1010.81
2018-12-24T08:43:46.516Z,1010.83
2018-12-24T08:44:46.533Z,1010.89
2018-12-24T08:45:46.547Z,1010.90
2018-12-24T08:46:46.563Z,1010.91
2018-12-24T08:47:46.579Z,1010.94
2018-12-24T08:48:46.604Z,1010.97
2018-12-24T08:49:46.620Z,1011.01
2018-12-24T08:50:46.646Z,1011.02
2018-12-24T08:51:46.655Z,1011.00
2018-12-24T08:52:46.665Z,1011.00
2018-12-24T08:53:46.677Z,1011.01
2018-12-24T08:54:46.693Z,1011.03
2018-12-24T08:55:46.708Z,1011.05
2018-12-24T08:56:46.720Z,1011.06
2018-12-24T08:57:46.736Z,1011.09
2018-12-24T08:58:46.761Z,1011.12
2018-12-24T08:59:46.770Z,1011.14
2018-12-24T09:00:46.787Z,1011.19
2018-12-24T09:01:46.801Z,1011.20
2018-12-24T09:02:46.823Z,1011.21
2018-12-24T09:03:46.831Z,1011.24
2018-12-24T09:04:46.853Z,1011.18
2018-12-24T09:05:46.872Z,1011.24
2018-12-24T09:06:46.889Z,1011.24
2018-12-24T09:07:46.902Z,1011.31
2018-12-24T09:08:46.919Z,1011.30
2018-12-24T09:09:46.949Z,1011.37
2018-12-24T09:10:46.970Z,1011.38
2018-12-24T09:11:46.967Z,1011.39
2018-12-24T09:12:46.983Z,1011.44
2018-12-24T09:13:47.004Z,1011.46
2018-12-24T09:14:50.346Z,1011.45
2018-12-24T09:15:47.044Z,1011.50
2018-12-24T09:16:47.054Z,1011.50
2018-12-24T09:17:47.071Z,1011.51
2018-12-24T09:18:47.087Z,1011.55
2018-12-24T09:19:47.107Z,1011.58
2018-12-24T09:20:52.662Z,1011.62
2018-12-24T09:21:47.148Z,1011.62
2018-12-24T09:22:47.145Z,1011.65
2018-12-24T09:23:47.158Z,1011.67
2018-12-24T09:24:47.174Z,1011.75
2018-12-24T09:25:47.197Z,1011.77
2018-12-24T09:26:47.220Z,1011.84
2018-12-24T09:27:47.235Z,1011.84
2018-12-24T09:28:47.240Z,1011.87
2018-12-24T09:29:47.261Z,1011.84
2018-12-24T09:30:47.274Z,1011.85
2018-12-24T09:31:47.296Z,1011.86
2018-12-24T09:32:47.308Z,1011.92
2018-12-24T09:33:47.324Z,1011.94
2018-12-24T09:34:47.339Z,1011.96
2018-12-24T09:35:47.363Z,1011.97
2018-12-24T09:36:47.373Z,1012.06
2018-12-24T09:37:47.391Z,1012.04
2018-12-24T09:38:47.411Z,1012.05
2018-12-24T09:39:47.429Z,1012.06
2018-12-24T09:40:47.439Z,1012.09
2018-12-24T09:41:47.461Z,1012.12
2018-12-24T09:42:47.483Z,1012.09
2018-12-24T09:43:47.489Z,1012.10
2018-12-24T09:44:47.503Z,1012.13
2018-12-24T09:45:47.519Z,1012.16
2018-12-24T09:46:47.550Z,1012.18
2018-12-24T09:47:47.558Z,1012.27
2018-12-24T09:48:47.574Z,1012.27
2018-12-24T09:49:47.602Z,1012.30
2018-12-24T09:50:47.617Z,1012.36
2018-12-24T09:51:47.649Z,1012.38
2018-12-24T09:52:47.639Z,1012.40
2018-12-24T09:53:47.798Z,1012.41
2018-12-24T09:54:47.678Z,1012.45
2018-12-24T09:55:47.705Z,1012.47
2018-12-24T09:56:47.724Z,1012.49
2018-12-24T09:57:47.730Z,1012.52
2018-12-24T09:58:47.747Z,1012.56
2018-12-24T09:59:47.753Z,1012.58
2018-12-24T10:00:47.768Z,1012.60
2018-12-24T10:01:47.783Z,1012.66
2018-12-24T10:02:47.802Z,1012.68
2018-12-24T10:03:47.838Z,1012.70
2018-12-24T10:04:47.830Z,1012.76
2018-12-24T10:05:47.851Z,1012.75
2018-12-24T10:06:47.864Z,1012.82
2018-12-24T10:07:47.893Z,1012.88
2018-12-24T10:08:47.894Z,1012.92
2018-12-24T10:09:47.916Z,1012.94
2018-12-24T10:10:47.932Z,1013.00
2018-12-24T10:11:47.945Z,1013.08
2018-12-24T10:12:47.971Z,1013.13
2018-12-24T10:13:47.976Z,1013.19
2018-12-24T10:14:48.012Z,1013.22
2018-12-24T10:15:48.009Z,1013.25
2018-12-24T10:16:48.024Z,1013.39
2018-12-24T10:17:48.040Z,1013.28
2018-12-24T10:18:48.065Z,1013.30
2018-12-24T10:19:48.071Z,1013.36
2018-12-24T10:20:48.087Z,1013.32
2018-12-24T10:21:48.102Z,1013.34
2018-12-24T10:22:48.121Z,1013.34
2018-12-24T10:23:48.155Z,1013.39
2018-12-24T10:24:48.153Z,1013.37
2018-12-24T10:25:48.163Z,1013.35
2018-12-24T10:26:48.185Z,1013.39
2018-12-24T10:27:48.218Z,1013.40
2018-12-24T10:28:48.225Z,1013.44
2018-12-24T10:29:48.231Z,1013.40
2018-12-24T10:30:48.242Z,1013.45
2018-12-24T10:31:48.266Z,1013.46
2018-12-24T10:32:48.273Z,1013.49
2018-12-24T10:33:48.286Z,1013.48
2018-12-24T10:34:48.308Z,1013.53
2018-12-24T10:35:48.331Z,1013.48
2018-12-24T10:36:48.339Z,1013.52
2018-12-24T10:37:48.352Z,1013.51
2018-12-24T10:38:48.368Z,1013.51
2018-12-24T10:39:48.413Z,1013.49
2018-12-24T10:40:48.408Z,1013.53
2018-12-24T10:41:48.418Z,1013.52
2018-12-24T10:42:48.429Z,1013.53
2018-12-24T10:43:48.445Z,1013.55
2018-12-24T10:44:48.465Z,1013.52
2018-12-24T10:45:48.478Z,1013.52
2018-12-24T10:46:48.493Z,1013.55
2018-12-24T10:47:48.551Z,1013.51
2018-12-24T10:48:48.518Z,1013.53
2018-12-24T10:49:48.540Z,1013.52
2018-12-24T10:50:48.555Z,1013.50
2018-12-24T10:51:48.568Z,1013.46
2018-12-24T10:52:48.585Z,1013.49
2018-12-24T10:53:48.622Z,1013.48
2018-12-24T10:54:48.631Z,1013.48
2018-12-24T10:55:48.630Z,1013.44
2018-12-24T10:56:48.655Z,1013.50
2018-12-24T10:57:48.666Z,1013.48
2018-12-24T10:58:48.691Z,1013.53
2018-12-24T10:59:48.696Z,1013.56
2018-12-24T11:00:48.713Z,1013.69
2018-12-24T11:01:48.727Z,1013.71
2018-12-24T11:02:48.742Z,1013.72
2018-12-24T11:03:48.755Z,1013.66
2018-12-24T11:04:48.777Z,1013.69
2018-12-24T11:05:48.794Z,1013.63
2018-12-24T11:06:48.803Z,1013.73
2018-12-24T11:07:48.822Z,1013.70
2018-12-24T11:08:48.865Z,1013.75
2018-12-24T11:09:48.847Z,1013.73
2018-12-24T11:10:48.863Z,1013.76
2018-12-24T11:11:48.888Z,1013.71
2018-12-24T11:12:48.910Z,1013.77
2018-12-24T11:13:48.917Z,1013.77
2018-12-24T11:14:48.927Z,1013.85
2018-12-24T11:15:48.958Z,1013.85
2018-12-24T11:16:48.974Z,1013.87
2018-12-24T11:17:48.974Z,1013.91
2018-12-24T11:18:48.992Z,1013.93
2018-12-24T11:19:49.008Z,1013.94
2018-12-24T11:20:49.029Z,1013.98
2018-12-24T11:21:49.039Z,1013.96
2018-12-24T11:22:49.051Z,1013.90
2018-12-24T11:23:49.070Z,1013.89
2018-12-24T11:24:49.130Z,1013.88
2018-12-24T11:25:49.113Z,1013.83
2018-12-24T11:26:49.118Z,1013.85
2018-12-24T11:27:49.131Z,1013.81
2018-12-24T11:28:49.153Z,1013.75
2018-12-24T11:29:49.192Z,1013.77
2018-12-24T11:30:49.207Z,1013.76
2018-12-24T11:31:49.200Z,1013.80
2018-12-24T11:32:49.210Z,1013.81
2018-12-24T11:33:49.221Z,1013.73
2018-12-24T11:34:49.240Z,1013.78
2018-12-24T11:35:49.256Z,1013.78
2018-12-24T11:36:49.307Z,1013.76
2018-12-24T11:37:49.288Z,1013.81
2018-12-24T11:38:49.311Z,1013.80
2018-12-24T11:39:49.317Z,1013.83
2018-12-24T11:40:49.340Z,1013.84
2018-12-24T11:41:49.349Z,1013.85
2018-12-24T11:42:49.365Z,1013.85
2018-12-24T11:43:49.387Z,1013.87
2018-12-24T11:44:49.395Z,1013.90
2018-12-24T11:45:49.417Z,1013.90
2018-12-24T11:46:49.425Z,1013.88
2018-12-24T11:47:49.457Z,1013.87
2018-12-24T11:48:49.466Z,1013.87
2018-12-24T11:49:49.483Z,1013.87
2018-12-24T11:50:49.507Z,1013.90
2018-12-24T11:51:49.505Z,1013.92
2018-12-24T11:52:49.528Z,1013.95
2018-12-24T11:53:49.549Z,1013.88
2018-12-24T11:54:49.553Z,1013.93
2018-12-24T11:55:49.572Z,1013.97
2018-12-24T11:56:49.578Z,1013.95
2018-12-24T11:57:49.601Z,1014.05
2018-12-24T11:58:49.619Z,1014.00
2018-12-24T11:59:49.642Z,1014.00
2018-12-24T12:00:49.644Z,1014.05
2018-12-24T12:01:49.661Z,1014.08
2018-12-24T12:02:49.678Z,1014.06
2018-12-24T12:03:49.694Z,1014.04
2018-12-24T12:04:49.721Z,1014.06
2018-12-24T12:05:49.727Z,1014.07
2018-12-24T12:06:49.773Z,1014.14
2018-12-24T12:07:49.755Z,1014.09